sensor_id;sensor_type;location;lat;lon;timestamp;pressure;altitude;pressure_sealevel;temperature;humidity
77110;BME280;66062;52.464;16.922;2023-08-07T00:02:16;99068.38;;;13.79;100.00
77110;BME280;66062;52.464;16.922;2023-08-07T00:04:41;99071.06;;;13.79;100.00
77110;BME280;66062;52.464;16.922;2023-08-07T00:07:06;99071.25;;;13.70;100.00
77110;BME280;66062;52.464;16.922;2023-08-07T00:09:32;99083.25;;;13.81;100.00
77110;BME280;66062;52.464;16.922;2023-08-07T00:11:57;99079.75;;;13.81;100.00
77110;BME280;66062;52.464;16.922;2023-08-07T00:14:23;99070.09;;;13.86;100.00
77110;BME280;66062;52.464;16.922;2023-08-07T00:16:48;99064.91;;;13.85;100.00
77110;BME280;66062;52.464;16.922;2023-08-07T00:19:13;99068.06;;;13.95;100.00
77110;BME280;66062;52.464;16.922;2023-08-07T00:21:39;99064.13;;;13.91;100.00
77110;BME280;66062;52.464;16.922;2023-08-07T00:24:05;99064.91;;;13.85;100.00
77110;BME280;66062;52.464;16.922;2023-08-07T00:26:30;99065.34;;;13.88;100.00
77110;BME280;66062;52.464;16.922;2023-08-07T00:28:57;99075.03;;;13.89;100.00
77110;BME280;66062;52.464;16.922;2023-08-07T00:31:22;99073.38;;;13.88;100.00
77110;BME280;66062;52.464;16.922;2023-08-07T00:33:48;99072.56;;;13.88;100.00
77110;BME280;66062;52.464;16.922;2023-08-07T00:36:17;99083.50;;;13.93;100.00
77110;BME280;66062;52.464;16.922;2023-08-07T00:38:42;99080.78;;;13.80;100.00
77110;BME280;66062;52.464;16.922;2023-08-07T00:41:07;99088.44;;;13.89;100.00
77110;BME280;66062;52.464;16.922;2023-08-07T00:43:35;99085.78;;;13.89;100.00
77110;BME280;66062;52.464;16.922;2023-08-07T00:46:00;99085.78;;;13.89;100.00
77110;BME280;66062;52.464;16.922;2023-08-07T00:48:26;99087.81;;;13.87;100.00
77110;BME280;66062;52.464;16.922;2023-08-07T00:50:52;99082.91;;;13.91;100.00
77110;BME280;66062;52.464;16.922;2023-08-07T00:53:19;99084.94;;;13.89;100.00
77110;BME280;66062;52.464;16.922;2023-08-07T00:55:45;99074.81;;;13.84;100.00
77110;BME280;66062;52.464;16.922;2023-08-07T00:58:11;99087.38;;;13.84;100.00
77110;BME280;66062;52.464;16.922;2023-08-07T01:00:37;99086.19;;;13.86;100.00
77110;BME280;66062;52.464;16.922;2023-08-07T01:03:05;99093.16;;;13.81;100.00
77110;BME280;66062;52.464;16.922;2023-08-07T01:05:31;99085.13;;;13.81;100.00
77110;BME280;66062;52.464;16.922;2023-08-07T01:07:57;99092.72;;;13.77;100.00
77110;BME280;66062;52.464;16.922;2023-08-07T01:11:07;99089.41;;;13.75;100.00
77110;BME280;66062;52.464;16.922;2023-08-07T01:13:29;99088.59;;;13.75;100.00
77110;BME280;66062;52.464;16.922;2023-08-07T01:16:01;99090.25;;;13.76;100.00
77110;BME280;66062;52.464;16.922;2023-08-07T01:18:28;99085.47;;;13.71;100.00
77110;BME280;66062;52.464;16.922;2023-08-07T01:20:54;99089.59;;;13.74;100.00
77110;BME280;66062;52.464;16.922;2023-08-07T01:23:20;99078.22;;;13.65;100.00
77110;BME280;66062;52.464;16.922;2023-08-07T01:25:45;99082.94;;;13.63;100.00
77110;BME280;66062;52.464;16.922;2023-08-07T01:28:19;99075.31;;;13.66;100.00
77110;BME280;66062;52.464;16.922;2023-08-07T01:30:50;99072.03;;;13.64;100.00
77110;BME280;66062;52.464;16.922;2023-08-07T01:33:24;99065.81;;;13.64;100.00
77110;BME280;66062;52.464;16.922;2023-08-07T01:35:53;99064.59;;;13.66;100.00
77110;BME280;66062;52.464;16.922;2023-08-07T01:38:24;99068.50;;;13.64;100.00
77110;BME280;66062;52.464;16.922;2023-08-07T01:40:50;99072.03;;;13.64;100.00
77110;BME280;66062;52.464;16.922;2023-08-07T01:43:17;99073.69;;;13.65;100.00
77110;BME280;66062;52.464;16.922;2023-08-07T01:45:44;99085.66;;;13.69;100.00
77110;BME280;66062;52.464;16.922;2023-08-07T01:48:09;99090.38;;;13.67;100.00
77110;BME280;66062;52.464;16.922;2023-08-07T01:50:35;99077.16;;;13.59;100.00
77110;BME280;66062;52.464;16.922;2023-08-07T01:53:01;99074.06;;;13.62;100.00
77110;BME280;66062;52.464;16.922;2023-08-07T01:55:27;99073.03;;;13.63;100.00
77110;BME280;66062;52.464;16.922;2023-08-07T01:57:53;99077.97;;;13.60;100.00
77110;BME280;66062;52.464;16.922;2023-08-07T02:00:18;99069.47;;;13.50;100.00
77110;BME280;66062;52.464;16.922;2023-08-07T02:02:44;99068.38;;;13.44;100.00
77110;BME280;66062;52.464;16.922;2023-08-07T02:05:11;99072.91;;;13.44;100.00
77110;BME280;66062;52.464;16.922;2023-08-07T02:07:37;99070.25;;;13.44;100.00
77110;BME280;66062;52.464;16.922;2023-08-07T02:10:02;99073.56;;;13.46;100.00
77110;BME280;66062;52.464;16.922;2023-08-07T02:12:28;99078.28;;;13.44;100.00
77110;BME280;66062;52.464;16.922;2023-08-07T02:14:58;99062.63;;;13.47;100.00
77110;BME280;66062;52.464;16.922;2023-08-07T02:17:25;99067.13;;;13.40;100.00
77110;BME280;66062;52.464;16.922;2023-08-07T02:19:50;99058.69;;;13.43;100.00
77110;BME280;66062;52.464;16.922;2023-08-07T02:22:16;99065.06;;;13.42;100.00
77110;BME280;66062;52.464;16.922;2023-08-07T02:24:41;99055.34;;;13.35;100.00
77110;BME280;66062;52.464;16.922;2023-08-07T02:27:07;99050.16;;;13.33;100.00
77110;BME280;66062;52.464;16.922;2023-08-07T02:29:32;99052.00;;;13.33;100.00
77110;BME280;66062;52.464;16.922;2023-08-07T02:32:01;99048.13;;;13.35;100.00
77110;BME280;66062;52.464;16.922;2023-08-07T02:34:27;99043.78;;;13.34;100.00
77110;BME280;66062;52.464;16.922;2023-08-07T02:36:52;99039.84;;;13.30;100.00
77110;BME280;66062;52.464;16.922;2023-08-07T02:39:17;99043.72;;;13.27;100.00
77110;BME280;66062;52.464;16.922;2023-08-07T02:41:43;99050.50;;;13.23;100.00
77110;BME280;66062;52.464;16.922;2023-08-07T02:44:08;99050.09;;;13.26;100.00
77110;BME280;66062;52.464;16.922;2023-08-07T02:46:33;99048.25;;;13.27;100.00
77110;BME280;66062;52.464;16.922;2023-08-07T02:49:01;99056.94;;;13.29;100.00
77110;BME280;66062;52.464;16.922;2023-08-07T02:51:27;99048.50;;;13.32;100.00
77110;BME280;66062;52.464;16.922;2023-08-07T02:53:52;99054.09;;;13.31;100.00
77110;BME280;66062;52.464;16.922;2023-08-07T02:56:18;99055.75;;;13.38;100.00
77110;BME280;66062;52.464;16.922;2023-08-07T02:58:43;99052.84;;;13.33;100.00
77110;BME280;66062;52.464;16.922;2023-08-07T03:01:08;99065.84;;;13.36;100.00
77110;BME280;66062;52.464;16.922;2023-08-07T03:03:34;99068.09;;;13.33;100.00
77110;BME280;66062;52.464;16.922;2023-08-07T03:06:00;99072.44;;;13.34;100.00
77110;BME280;66062;52.464;16.922;2023-08-07T03:08:25;99069.94;;;13.32;100.00
77110;BME280;66062;52.464;16.922;2023-08-07T03:10:55;99074.03;;;13.28;100.00
77110;BME280;66062;52.464;16.922;2023-08-07T03:13:21;99072.78;;;13.24;100.00
77110;BME280;66062;52.464;16.922;2023-08-07T03:15:47;99073.94;;;13.15;100.00
77110;BME280;66062;52.464;16.922;2023-08-07T03:18:15;99074.78;;;13.15;100.00
77110;BME280;66062;52.464;16.922;2023-08-07T03:20:40;99074.13;;;13.13;100.00
77110;BME280;66062;52.464;16.922;2023-08-07T03:23:06;99073.66;;;13.10;100.00
77110;BME280;66062;52.464;16.922;2023-08-07T03:25:32;99081.00;;;13.01;100.00
77110;BME280;66062;52.464;16.922;2023-08-07T03:30:04;99088.53;;;12.91;100.00
77110;BME280;66062;52.464;16.922;2023-08-07T03:32:30;99087.91;;;12.89;100.00
77110;BME280;66062;52.464;16.922;2023-08-07T03:34:55;99087.66;;;12.84;100.00
77110;BME280;66062;52.464;16.922;2023-08-07T03:37:20;99094.84;;;12.83;100.00
77110;BME280;66062;52.464;16.922;2023-08-07T03:39:46;99100.97;;;12.77;100.00
77110;BME280;66062;52.464;16.922;2023-08-07T03:42:13;99111.28;;;12.80;100.00
77110;BME280;66062;52.464;16.922;2023-08-07T03:44:40;99106.41;;;12.84;100.00
77110;BME280;66062;52.464;16.922;2023-08-07T03:47:05;99113.34;;;12.78;100.00
77110;BME280;66062;52.464;16.922;2023-08-07T03:49:31;99117.59;;;12.73;100.00
77110;BME280;66062;52.464;16.922;2023-08-07T03:51:56;99129.16;;;12.73;100.00
77110;BME280;66062;52.464;16.922;2023-08-07T03:54:24;99133.00;;;12.71;100.00
77110;BME280;66062;52.464;16.922;2023-08-07T03:56:49;99135.78;;;12.77;100.00
77110;BME280;66062;52.464;16.922;2023-08-07T03:59:16;99137.31;;;12.86;100.00
77110;BME280;66062;52.464;16.922;2023-08-07T04:01:42;99135.63;;;12.85;100.00
77110;BME280;66062;52.464;16.922;2023-08-07T04:04:07;99137.31;;;12.86;100.00
77110;BME280;66062;52.464;16.922;2023-08-07T04:06:33;99131.44;;;12.98;100.00
77110;BME280;66062;52.464;16.922;2023-08-07T04:08:58;99137.88;;;13.03;100.00
77110;BME280;66062;52.464;16.922;2023-08-07T04:11:24;99131.03;;;13.01;100.00
77110;BME280;66062;52.464;16.922;2023-08-07T04:13:49;99140.75;;;13.02;100.00
77110;BME280;66062;52.464;16.922;2023-08-07T04:16:16;99142.84;;;13.06;100.00
77110;BME280;66062;52.464;16.922;2023-08-07T04:18:42;99145.34;;;13.08;100.00
77110;BME280;66062;52.464;16.922;2023-08-07T04:21:07;99151.72;;;13.07;100.00
77110;BME280;66062;52.464;16.922;2023-08-07T04:23:33;99149.22;;;13.20;100.00
77110;BME280;66062;52.464;16.922;2023-08-07T04:25:59;99152.91;;;13.19;100.00
77110;BME280;66062;52.464;16.922;2023-08-07T04:28:27;99148.41;;;13.26;100.00
77110;BME280;66062;52.464;16.922;2023-08-07T04:30:53;99140.63;;;13.31;100.00
77110;BME280;66062;52.464;16.922;2023-08-07T04:33:19;99143.56;;;13.36;100.00
77110;BME280;66062;52.464;16.922;2023-08-07T04:35:45;99143.81;;;13.41;100.00
77110;BME280;66062;52.464;16.922;2023-08-07T04:38:12;99148.13;;;13.36;100.00
77110;BME280;66062;52.464;16.922;2023-08-07T04:40:51;99146.88;;;13.38;100.00
77110;BME280;66062;52.464;16.922;2023-08-07T04:43:18;99136.94;;;13.32;100.00
77110;BME280;66062;52.464;16.922;2023-08-07T04:45:46;99131.00;;;13.37;100.00
77110;BME280;66062;52.464;16.922;2023-08-07T04:48:13;99137.25;;;13.44;100.00
77110;BME280;66062;52.464;16.922;2023-08-07T04:50:38;99131.03;;;13.43;100.00
77110;BME280;66062;52.464;16.922;2023-08-07T04:53:04;99136.25;;;13.51;100.00
77110;BME280;66062;52.464;16.922;2023-08-07T04:55:30;99139.63;;;13.60;100.00
77110;BME280;66062;52.464;16.922;2023-08-07T04:57:56;99142.56;;;13.65;99.87
77110;BME280;66062;52.464;16.922;2023-08-07T05:00:22;99143.06;;;13.82;99.72
77110;BME280;66062;52.464;16.922;2023-08-07T05:02:47;99144.38;;;13.92;98.45
77110;BME280;66062;52.464;16.922;2023-08-07T05:05:14;99139.84;;;13.93;98.37
77110;BME280;66062;52.464;16.922;2023-08-07T05:07:40;99143.63;;;14.05;98.21
77110;BME280;66062;52.464;16.922;2023-08-07T05:10:06;99147.84;;;14.21;97.43
77110;BME280;66062;52.464;16.922;2023-08-07T05:12:31;99144.72;;;14.17;97.79
77110;BME280;66062;52.464;16.922;2023-08-07T05:14:57;99145.72;;;14.09;97.59
77110;BME280;66062;52.464;16.922;2023-08-07T05:17:22;99149.22;;;14.10;98.58
77110;BME280;66062;52.464;16.922;2023-08-07T05:19:48;99148.69;;;14.21;97.76
77110;BME280;66062;52.464;16.922;2023-08-07T05:22:13;99151.50;;;14.13;98.05
77110;BME280;66062;52.464;16.922;2023-08-07T05:24:39;99160.97;;;14.09;97.86
77110;BME280;66062;52.464;16.922;2023-08-07T05:27:08;99162.19;;;14.00;98.83
77110;BME280;66062;52.464;16.922;2023-08-07T05:29:34;99162.78;;;13.95;99.05
77110;BME280;66062;52.464;16.922;2023-08-07T05:32:00;99163.03;;;14.07;99.30
77110;BME280;66062;52.464;16.922;2023-08-07T05:34:25;99152.16;;;14.15;98.77
77110;BME280;66062;52.464;16.922;2023-08-07T05:36:51;99161.91;;;14.29;98.41
77110;BME280;66062;52.464;16.922;2023-08-07T05:39:16;99158.69;;;14.40;97.27
77110;BME280;66062;52.464;16.922;2023-08-07T05:41:42;99163.28;;;14.46;97.36
77110;BME280;66062;52.464;16.922;2023-08-07T05:44:07;99166.19;;;14.51;96.80
77110;BME280;66062;52.464;16.922;2023-08-07T05:46:33;99165.84;;;14.68;96.13
77110;BME280;66062;52.464;16.922;2023-08-07T05:48:58;99179.91;;;14.76;95.34
77110;BME280;66062;52.464;16.922;2023-08-07T05:51:24;99179.13;;;14.95;94.23
77110;BME280;66062;52.464;16.922;2023-08-07T05:53:49;99178.94;;;15.04;92.82
77110;BME280;66062;52.464;16.922;2023-08-07T05:56:14;99182.28;;;15.25;92.00
77110;BME280;66062;52.464;16.922;2023-08-07T05:58:40;99183.34;;;15.37;91.86
77110;BME280;66062;52.464;16.922;2023-08-07T06:01:05;99185.44;;;15.49;90.11
77110;BME280;66062;52.464;16.922;2023-08-07T06:03:31;99184.81;;;15.60;88.56
77110;BME280;66062;52.464;16.922;2023-08-07T06:05:57;99191.03;;;15.60;88.28
77110;BME280;66062;52.464;16.922;2023-08-07T06:08:23;99192.47;;;15.76;87.64
77110;BME280;66062;52.464;16.922;2023-08-07T06:10:48;99188.13;;;15.88;86.29
77110;BME280;66062;52.464;16.922;2023-08-07T06:13:14;99194.50;;;16.13;84.95
77110;BME280;66062;52.464;16.922;2023-08-07T06:15:39;99196.94;;;16.28;84.40
77110;BME280;66062;52.464;16.922;2023-08-07T06:18:04;99209.56;;;16.92;82.06
77110;BME280;66062;52.464;16.922;2023-08-07T06:20:30;99197.13;;;17.29;78.13
77110;BME280;66062;52.464;16.922;2023-08-07T06:22:55;99209.28;;;16.68;80.39
77110;BME280;66062;52.464;16.922;2023-08-07T06:25:21;99214.31;;;16.39;81.98
77110;BME280;66062;52.464;16.922;2023-08-07T06:27:46;99229.06;;;16.94;80.29
77110;BME280;66062;52.464;16.922;2023-08-07T06:30:12;99206.13;;;18.22;72.27
77110;BME280;66062;52.464;16.922;2023-08-07T06:32:39;99210.66;;;18.64;70.29
77110;BME280;66062;52.464;16.922;2023-08-07T06:35:05;99218.78;;;19.42;67.05
77110;BME280;66062;52.464;16.922;2023-08-07T06:37:30;99208.78;;;20.07;64.60
77110;BME280;66062;52.464;16.922;2023-08-07T06:39:56;99216.56;;;20.39;63.87
77110;BME280;66062;52.464;16.922;2023-08-07T06:42:22;99208.50;;;21.07;61.32
77110;BME280;66062;52.464;16.922;2023-08-07T06:44:47;99208.53;;;21.69;58.39
77110;BME280;66062;52.464;16.922;2023-08-07T06:47:13;99207.91;;;22.29;55.87
77110;BME280;66062;52.464;16.922;2023-08-07T06:49:39;99221.22;;;21.80;56.98
77110;BME280;66062;52.464;16.922;2023-08-07T06:52:04;99220.28;;;21.41;58.59
77110;BME280;66062;52.464;16.922;2023-08-07T06:54:30;99233.19;;;20.31;61.95
77110;BME280;66062;52.464;16.922;2023-08-07T06:56:55;99232.50;;;20.35;61.41
77110;BME280;66062;52.464;16.922;2023-08-07T06:59:21;99230.22;;;20.09;61.97
77110;BME280;66062;52.464;16.922;2023-08-07T07:01:49;99218.88;;;19.66;64.13
77110;BME280;66062;52.464;16.922;2023-08-07T07:04:15;99223.97;;;20.08;63.20
77110;BME280;66062;52.464;16.922;2023-08-07T07:06:40;99229.06;;;21.93;56.14
77110;BME280;66062;52.464;16.922;2023-08-07T07:09:06;99218.53;;;22.52;54.85
77110;BME280;66062;52.464;16.922;2023-08-07T07:11:31;99222.84;;;22.48;55.08
77110;BME280;66062;52.464;16.922;2023-08-07T07:13:57;99223.47;;;21.21;57.27
77110;BME280;66062;52.464;16.922;2023-08-07T07:16:23;99238.97;;;20.34;61.80
77110;BME280;66062;52.464;16.922;2023-08-07T07:18:52;99241.34;;;19.36;64.02
77110;BME280;66062;52.464;16.922;2023-08-07T07:21:17;99242.34;;;19.95;63.27
77110;BME280;66062;52.464;16.922;2023-08-07T07:23:43;99240.59;;;20.47;61.02
77110;BME280;66062;52.464;16.922;2023-08-07T07:26:09;99238.47;;;21.41;60.19
77110;BME280;66062;52.464;16.922;2023-08-07T07:28:34;99247.34;;;20.96;61.02
77110;BME280;66062;52.464;16.922;2023-08-07T07:31:01;99243.06;;;20.72;59.48
77110;BME280;66062;52.464;16.922;2023-08-07T07:33:26;99247.84;;;21.50;59.04
77110;BME280;66062;52.464;16.922;2023-08-07T07:35:53;99238.03;;;21.77;57.49
77110;BME280;66062;52.464;16.922;2023-08-07T07:38:18;99251.78;;;21.14;58.54
77110;BME280;66062;52.464;16.922;2023-08-07T07:40:44;99261.03;;;19.43;64.56
77110;BME280;66062;52.464;16.922;2023-08-07T07:43:10;99277.41;;;18.82;67.73
77110;BME280;66062;52.464;16.922;2023-08-07T07:45:36;99268.94;;;18.78;67.85
77110;BME280;66062;52.464;16.922;2023-08-07T07:48:02;99287.66;;;18.37;70.78
77110;BME280;66062;52.464;16.922;2023-08-07T07:50:28;99281.44;;;18.12;71.29
77110;BME280;66062;52.464;16.922;2023-08-07T07:52:53;99281.03;;;18.58;70.12
77110;BME280;66062;52.464;16.922;2023-08-07T07:55:19;99278.63;;;18.68;69.77
77110;BME280;66062;52.464;16.922;2023-08-07T07:57:45;99279.16;;;18.76;69.57
77110;BME280;66062;52.464;16.922;2023-08-07T08:00:11;99270.03;;;20.20;63.94
77110;BME280;66062;52.464;16.922;2023-08-07T08:02:39;99266.78;;;20.41;63.19
77110;BME280;66062;52.464;16.922;2023-08-07T08:05:06;99268.44;;;22.07;57.54
77110;BME280;66062;52.464;16.922;2023-08-07T08:07:32;99256.41;;;23.19;52.44
77110;BME280;66062;52.464;16.922;2023-08-07T08:09:59;99255.09;;;22.61;54.93
77110;BME280;66062;52.464;16.922;2023-08-07T08:12:25;99263.41;;;22.33;55.63
77110;BME280;66062;52.464;16.922;2023-08-07T08:14:51;99258.72;;;22.67;54.03
77110;BME280;66062;52.464;16.922;2023-08-07T08:17:16;99271.75;;;21.64;57.48
77110;BME280;66062;52.464;16.922;2023-08-07T08:19:42;99272.09;;;21.85;58.64
77110;BME280;66062;52.464;16.922;2023-08-07T08:22:07;99259.41;;;22.18;56.96
77110;BME280;66062;52.464;16.922;2023-08-07T08:24:32;99272.44;;;21.71;58.37
77110;BME280;66062;52.464;16.922;2023-08-07T08:26:58;99276.31;;;22.59;55.01
77110;BME280;66062;52.464;16.922;2023-08-07T08:29:23;99266.06;;;22.28;55.34
77110;BME280;66062;52.464;16.922;2023-08-07T08:31:49;99283.84;;;20.65;60.86
77110;BME280;66062;52.464;16.922;2023-08-07T08:34:16;99278.53;;;19.59;64.97
77110;BME280;66062;52.464;16.922;2023-08-07T08:36:41;99285.31;;;19.50;64.90
77110;BME280;66062;52.464;16.922;2023-08-07T08:39:07;99292.28;;;18.91;67.95
77110;BME280;66062;52.464;16.922;2023-08-07T08:41:32;99292.28;;;18.73;69.06
77110;BME280;66062;52.464;16.922;2023-08-07T08:43:59;99292.06;;;18.74;68.99
77110;BME280;66062;52.464;16.922;2023-08-07T08:46:27;99301.75;;;18.64;69.02
77110;BME280;66062;52.464;16.922;2023-08-07T08:48:57;99298.00;;;18.40;70.57
77110;BME280;66062;52.464;16.922;2023-08-07T08:51:24;99291.28;;;18.24;72.24
77110;BME280;66062;52.464;16.922;2023-08-07T08:53:52;99304.94;;;18.29;73.17
77110;BME280;66062;52.464;16.922;2023-08-07T08:56:19;99305.34;;;18.33;72.28
77110;BME280;66062;52.464;16.922;2023-08-07T08:58:45;99318.38;;;18.18;74.15
77110;BME280;66062;52.464;16.922;2023-08-07T09:01:11;99311.41;;;18.04;74.07
77110;BME280;66062;52.464;16.922;2023-08-07T09:03:37;99305.56;;;18.56;73.36
77110;BME280;66062;52.464;16.922;2023-08-07T09:06:03;99312.19;;;18.97;70.81
77110;BME280;66062;52.464;16.922;2023-08-07T09:08:30;99302.50;;;19.07;69.82
77110;BME280;66062;52.464;16.922;2023-08-07T09:10:57;99299.56;;;19.09;69.73
77110;BME280;66062;52.464;16.922;2023-08-07T09:13:24;99295.66;;;20.36;65.13
77110;BME280;66062;52.464;16.922;2023-08-07T09:15:53;99298.50;;;21.04;62.50
77110;BME280;66062;52.464;16.922;2023-08-07T09:18:18;99291.31;;;20.98;61.50
77110;BME280;66062;52.464;16.922;2023-08-07T09:20:45;99297.41;;;21.57;59.76
77110;BME280;66062;52.464;16.922;2023-08-07T09:23:11;99311.19;;;21.67;60.13
77110;BME280;66062;52.464;16.922;2023-08-07T09:25:36;99310.59;;;20.85;60.55
77110;BME280;66062;52.464;16.922;2023-08-07T09:28:03;99311.41;;;20.74;60.19
77110;BME280;66062;52.464;16.922;2023-08-07T09:30:29;99312.78;;;21.23;58.74
77110;BME280;66062;52.464;16.922;2023-08-07T09:32:59;99319.44;;;20.69;59.40
77110;BME280;66062;52.464;16.922;2023-08-07T09:35:25;99325.56;;;20.53;59.90
77110;BME280;66062;52.464;16.922;2023-08-07T09:37:51;99323.22;;;20.44;59.61
77110;BME280;66062;52.464;16.922;2023-08-07T09:40:18;99322.16;;;19.92;62.09
77110;BME280;66062;52.464;16.922;2023-08-07T09:42:43;99320.22;;;20.11;61.00
77110;BME280;66062;52.464;16.922;2023-08-07T09:45:27;99325.25;;;20.07;60.47
77110;BME280;66062;52.464;16.922;2023-08-07T09:47:58;99320.75;;;20.55;58.82
77110;BME280;66062;52.464;16.922;2023-08-07T09:50:24;99325.19;;;20.37;59.16
77110;BME280;66062;52.464;16.922;2023-08-07T09:52:50;99325.22;;;20.61;58.45
77110;BME280;66062;52.464;16.922;2023-08-07T09:55:15;99326.41;;;20.53;57.39
77110;BME280;66062;52.464;16.922;2023-08-07T09:57:44;99329.47;;;19.92;59.85
77110;BME280;66062;52.464;16.922;2023-08-07T10:00:11;99332.06;;;19.57;61.29
77110;BME280;66062;52.464;16.922;2023-08-07T10:02:38;99333.22;;;19.13;62.83
77110;BME280;66062;52.464;16.922;2023-08-07T10:05:05;99328.03;;;19.30;62.85
77110;BME280;66062;52.464;16.922;2023-08-07T10:07:31;99334.22;;;20.08;60.28
77110;BME280;66062;52.464;16.922;2023-08-07T10:09:59;99329.22;;;20.35;59.44
77110;BME280;66062;52.464;16.922;2023-08-07T10:12:26;99328.50;;;20.74;57.35
77110;BME280;66062;52.464;16.922;2023-08-07T10:14:53;99328.03;;;20.89;56.02
77110;BME280;66062;52.464;16.922;2023-08-07T10:17:21;99329.34;;;20.86;56.70
77110;BME280;66062;52.464;16.922;2023-08-07T10:19:48;99335.63;;;21.67;53.73
77110;BME280;66062;52.464;16.922;2023-08-07T10:22:15;99322.16;;;21.72;52.85
77110;BME280;66062;52.464;16.922;2023-08-07T10:24:42;99336.47;;;21.67;53.74
77110;BME280;66062;52.464;16.922;2023-08-07T10:27:10;99343.13;;;20.85;54.06
77110;BME280;66062;52.464;16.922;2023-08-07T10:29:36;99346.47;;;20.11;57.42
77110;BME280;66062;52.464;16.922;2023-08-07T10:32:05;99338.69;;;20.02;59.00
77110;BME280;66062;52.464;16.922;2023-08-07T10:34:34;99343.78;;;20.11;58.34
77110;BME280;66062;52.464;16.922;2023-08-07T10:37:00;99338.84;;;19.78;58.54
77110;BME280;66062;52.464;16.922;2023-08-07T10:39:25;99345.53;;;20.05;58.56
77110;BME280;66062;52.464;16.922;2023-08-07T10:41:55;99336.78;;;20.44;56.26
77110;BME280;66062;52.464;16.922;2023-08-07T10:44:22;99332.84;;;21.22;54.11
77110;BME280;66062;52.464;16.922;2023-08-07T10:46:49;99346.44;;;20.87;55.92
77110;BME280;66062;52.464;16.922;2023-08-07T10:49:38;99343.16;;;20.62;56.72
77110;BME280;66062;52.464;16.922;2023-08-07T10:52:08;99339.28;;;20.04;57.71
77110;BME280;66062;52.464;16.922;2023-08-07T10:54:48;99339.59;;;19.96;58.57
77110;BME280;66062;52.464;16.922;2023-08-07T10:57:14;99337.56;;;19.32;60.48
77110;BME280;66062;52.464;16.922;2023-08-07T10:59:51;99345.47;;;19.34;61.91
77110;BME280;66062;52.464;16.922;2023-08-07T11:02:30;99346.41;;;19.57;62.36
77110;BME280;66062;52.464;16.922;2023-08-07T11:04:56;99345.84;;;19.97;61.22
77110;BME280;66062;52.464;16.922;2023-08-07T11:07:29;99343.22;;;20.32;59.04
77110;BME280;66062;52.464;16.922;2023-08-07T11:09:56;99351.84;;;20.64;58.17
77110;BME280;66062;52.464;16.922;2023-08-07T11:12:26;99355.47;;;21.04;56.91
77110;BME280;66062;52.464;16.922;2023-08-07T11:14:52;99352.28;;;21.30;56.31
77110;BME280;66062;52.464;16.922;2023-08-07T11:17:24;99348.63;;;21.93;54.57
77110;BME280;66062;52.464;16.922;2023-08-07T11:19:50;99345.28;;;22.53;52.59
77110;BME280;66062;52.464;16.922;2023-08-07T11:22:16;99343.97;;;22.55;51.88
77110;BME280;66062;52.464;16.922;2023-08-07T11:24:41;99328.50;;;22.23;51.70
77110;BME280;66062;52.464;16.922;2023-08-07T11:27:07;99340.16;;;23.50;48.05
77110;BME280;66062;52.464;16.922;2023-08-07T11:29:33;99342.34;;;24.70;45.08
77110;BME280;66062;52.464;16.922;2023-08-07T11:31:59;99348.81;;;25.48;44.07
77110;BME280;66062;52.464;16.922;2023-08-07T11:34:24;99352.88;;;24.89;42.95
77110;BME280;66062;52.464;16.922;2023-08-07T11:36:50;99356.44;;;24.52;44.05
77110;BME280;66062;52.464;16.922;2023-08-07T11:39:16;99371.50;;;22.76;47.26
77110;BME280;66062;52.464;16.922;2023-08-07T11:41:43;99383.88;;;22.50;49.24
77110;BME280;66062;52.464;16.922;2023-08-07T11:44:10;99382.38;;;22.76;48.16
77110;BME280;66062;52.464;16.922;2023-08-07T11:46:36;99379.06;;;22.24;48.25
77110;BME280;66062;52.464;16.922;2023-08-07T11:49:01;99390.81;;;21.44;51.57
77110;BME280;66062;52.464;16.922;2023-08-07T11:51:29;99388.66;;;21.98;49.87
77110;BME280;66062;52.464;16.922;2023-08-07T11:53:55;99383.78;;;22.78;48.17
77110;BME280;66062;52.464;16.922;2023-08-07T11:56:23;99386.50;;;23.17;45.66
77110;BME280;66062;52.464;16.922;2023-08-07T11:58:50;99395.75;;;22.77;46.89
77110;BME280;66062;52.464;16.922;2023-08-07T12:01:19;99390.00;;;22.74;47.57
77110;BME280;66062;52.464;16.922;2023-08-07T12:03:55;99412.13;;;21.64;48.88
77110;BME280;66062;52.464;16.922;2023-08-07T12:06:22;99416.50;;;21.65;48.76
77110;BME280;66062;52.464;16.922;2023-08-07T12:08:49;99413.06;;;20.95;49.05
77110;BME280;66062;52.464;16.922;2023-08-07T12:11:16;99414.13;;;20.93;49.99
77110;BME280;66062;52.464;16.922;2023-08-07T12:13:43;99420.28;;;20.77;49.66
77110;BME280;66062;52.464;16.922;2023-08-07T12:16:10;99420.00;;;20.56;50.10
77110;BME280;66062;52.464;16.922;2023-08-07T12:18:43;99435.66;;;20.54;51.20
77110;BME280;66062;52.464;16.922;2023-08-07T12:21:10;99434.28;;;20.21;53.26
77110;BME280;66062;52.464;16.922;2023-08-07T12:23:36;99433.09;;;20.29;52.55
77110;BME280;66062;52.464;16.922;2023-08-07T12:26:03;99428.31;;;20.31;53.68
77110;BME280;66062;52.464;16.922;2023-08-07T12:28:31;99432.09;;;19.82;54.78
77110;BME280;66062;52.464;16.922;2023-08-07T12:30:57;99451.13;;;19.39;57.49
77110;BME280;66062;52.464;16.922;2023-08-07T12:33:22;99448.28;;;18.91;60.58
77110;BME280;66062;52.464;16.922;2023-08-07T12:35:48;99468.22;;;18.71;62.95
77110;BME280;66062;52.464;16.922;2023-08-07T12:38:13;99466.72;;;18.75;64.15
77110;BME280;66062;52.464;16.922;2023-08-07T12:40:40;99467.50;;;18.83;65.02
77110;BME280;66062;52.464;16.922;2023-08-07T12:43:05;99477.94;;;18.79;64.42
77110;BME280;66062;52.464;16.922;2023-08-07T12:45:31;99474.28;;;18.67;65.74